createdAt,value
2022-12-19T00:01:35.247Z,24.45
2022-12-19T00:04:08.372Z,23.38
2022-12-19T00:06:37.288Z,22.90
2022-12-19T00:09:04.826Z,22.10
2022-12-19T00:11:32.382Z,21.38
2022-12-19T00:13:59.812Z,21.95
2022-12-19T00:16:29.496Z,22.55
2022-12-19T00:18:59.085Z,22.73
2022-12-19T00:21:29.228Z,21.48
2022-12-19T00:23:56.163Z,19.58
2022-12-19T00:26:26.998Z,20.88
2022-12-19T00:28:57.080Z,20.75
2022-12-19T00:31:24.590Z,23.35
2022-12-19T00:33:51.237Z,20.75
2022-12-19T00:36:23.663Z,21.67
2022-12-19T00:38:51.762Z,21.02
2022-12-19T00:41:35.659Z,20.95
2022-12-19T00:44:07.646Z,22.27
2022-12-19T00:46:35.331Z,21.40
2022-12-19T00:49:02.931Z,20.50
2022-12-19T00:51:33.757Z,21.00
2022-12-19T00:54:00.412Z,20.65
2022-12-19T00:56:31.688Z,19.75
2022-12-19T00:59:02.603Z,19.80
2022-12-19T01:01:38.414Z,22.30
2022-12-19T01:06:53.338Z,20.08
2022-12-19T01:09:21.761Z,19.50
2022-12-19T01:12:06.662Z,20.77
2022-12-19T01:14:33.226Z,18.55
2022-12-19T01:16:59.691Z,19.33
2022-12-19T01:19:27.283Z,19.00
2022-12-19T01:21:53.859Z,21.80
2022-12-19T01:24:21.011Z,20.80
2022-12-19T01:26:47.492Z,19.10
2022-12-19T01:29:14.053Z,18.33
2022-12-19T01:31:40.572Z,19.00
2022-12-19T01:34:07.155Z,19.90
2022-12-19T01:36:34.957Z,18.70
2022-12-19T01:39:06.473Z,19.05
2022-12-19T01:41:33.117Z,20.13
2022-12-19T01:44:05.880Z,19.45
2022-12-19T01:46:39.948Z,18.67
2022-12-19T01:49:15.368Z,17.95
2022-12-19T01:51:47.091Z,17.95
2022-12-19T01:54:21.947Z,19.25
2022-12-19T01:56:55.782Z,17.77
2022-12-19T01:59:32.339Z,17.60
2022-12-19T02:02:08.111Z,18.00
2022-12-19T02:04:35.117Z,19.42
2022-12-19T02:07:24.015Z,17.48
2022-12-19T02:09:57.192Z,17.45
2022-12-19T02:12:26.083Z,19.20
2022-12-19T02:14:56.168Z,19.17
2022-12-19T02:17:42.746Z,19.40
2022-12-19T02:20:49.245Z,18.73
2022-12-19T02:23:28.873Z,18.80
2022-12-19T02:26:04.380Z,19.42
2022-12-19T02:28:33.640Z,18.95
2022-12-19T02:31:26.406Z,19.23
2022-12-19T02:34:18.959Z,18.60
2022-12-19T02:37:02.166Z,19.33
2022-12-19T02:39:41.216Z,20.50
2022-12-19T02:42:11.421Z,19.88
2022-12-19T02:44:51.655Z,16.52
2022-12-19T02:47:20.251Z,19.05
2022-12-19T02:49:46.828Z,21.10
2022-12-19T02:52:19.148Z,21.85
2022-12-19T02:54:48.036Z,22.65
2022-12-19T02:57:28.511Z,19.67
2022-12-19T02:59:55.262Z,17.33
2022-12-19T03:02:57.898Z,19.98
2022-12-19T03:05:33.818Z,20.17
2022-12-19T03:08:06.122Z,20.95
2022-12-19T03:10:53.342Z,19.75
2022-12-19T03:13:37.527Z,23.75
2022-12-19T03:16:07.167Z,20.80
2022-12-19T03:18:34.132Z,22.40
2022-12-19T03:21:37.847Z,22.33
2022-12-19T03:24:06.892Z,21.40
2022-12-19T03:26:48.288Z,20.83
2022-12-19T03:31:46.411Z,22.05
2022-12-19T03:34:24.866Z,22.67
2022-12-19T03:36:59.605Z,21.08
2022-12-19T03:39:27.037Z,22.38
2022-12-19T03:42:13.401Z,22.88
2022-12-19T03:44:42.721Z,22.02
2022-12-19T03:47:22.485Z,24.00
2022-12-19T03:49:49.743Z,20.23
2022-12-19T03:52:26.787Z,24.73
2022-12-19T03:55:06.244Z,21.70
2022-12-19T03:58:05.687Z,21.98
2022-12-19T04:00:36.512Z,21.08
2022-12-19T04:03:04.568Z,22.20
2022-12-19T04:05:32.452Z,23.80
2022-12-19T04:08:04.767Z,20.92
2022-12-19T04:10:38.313Z,23.40
2022-12-19T04:13:12.072Z,22.00
2022-12-19T04:16:13.323Z,23.02
2022-12-19T04:18:45.312Z,23.52
2022-12-19T04:21:19.038Z,23.50
2022-12-19T04:23:52.788Z,22.58
2022-12-19T04:26:21.358Z,25.05
2022-12-19T04:28:56.327Z,23.40
2022-12-19T04:31:23.463Z,24.65
2022-12-19T04:33:50.051Z,23.27
2022-12-19T04:36:16.638Z,23.45
2022-12-19T04:38:43.138Z,23.77
2022-12-19T04:41:09.628Z,25.02
2022-12-19T04:43:36.160Z,20.88
2022-12-19T04:46:02.838Z,22.38
2022-12-19T04:48:29.371Z,22.75
2022-12-19T04:50:56.433Z,24.65
2022-12-19T04:53:24.511Z,24.00
2022-12-19T04:55:50.984Z,27.13
2022-12-19T04:58:21.909Z,23.10
2022-12-19T05:00:48.609Z,24.30
2022-12-19T05:03:15.078Z,27.63
2022-12-19T05:05:41.573Z,24.30
2022-12-19T05:08:08.766Z,24.23
2022-12-19T05:10:36.543Z,22.02
2022-12-19T05:13:03.092Z,22.42
2022-12-19T05:15:29.656Z,24.25
2022-12-19T05:17:57.711Z,23.65
2022-12-19T05:20:24.305Z,25.15
2022-12-19T05:22:50.782Z,22.15
2022-12-19T05:25:17.214Z,23.00
2022-12-19T05:27:43.680Z,23.05
2022-12-19T05:30:10.723Z,23.85
2022-12-19T05:32:37.246Z,23.75
2022-12-19T05:35:04.234Z,24.88
2022-12-19T05:37:30.655Z,23.42
2022-12-19T05:39:57.121Z,23.38
2022-12-19T05:42:26.231Z,24.17
2022-12-19T05:44:52.653Z,22.35
2022-12-19T05:47:22.201Z,24.67
2022-12-19T05:49:48.633Z,23.17
2022-12-19T05:52:15.043Z,25.13
2022-12-19T05:54:41.456Z,21.88
2022-12-19T05:57:07.904Z,24.02
2022-12-19T05:59:34.370Z,25.13
2022-12-19T06:02:00.909Z,25.05
2022-12-19T06:04:27.500Z,22.67
2022-12-19T06:06:54.335Z,21.98
2022-12-19T06:09:20.865Z,23.92
2022-12-19T06:11:47.999Z,23.65
2022-12-19T06:14:14.501Z,23.00
2022-12-19T06:16:41.062Z,23.65
2022-12-19T06:19:07.544Z,24.00
2022-12-19T06:21:34.104Z,22.45
2022-12-19T06:24:00.540Z,22.42
2022-12-19T06:26:27.324Z,23.90
2022-12-19T06:28:55.591Z,24.25
2022-12-19T06:31:24.827Z,22.77
2022-12-19T06:33:52.080Z,25.52
2022-12-19T06:36:25.679Z,23.98
2022-12-19T06:38:53.658Z,21.00
2022-12-19T06:41:39.042Z,22.95
2022-12-19T06:44:07.795Z,23.33
2022-12-19T06:46:35.402Z,22.52
2022-12-19T06:49:01.894Z,22.95
2022-12-19T06:51:28.808Z,22.30
2022-12-19T06:53:55.556Z,23.80
2022-12-19T06:56:22.665Z,21.48
2022-12-19T06:58:49.833Z,22.13
2022-12-19T07:01:21.113Z,21.90
2022-12-19T07:04:11.620Z,22.08
2022-12-19T07:06:51.639Z,21.60
2022-12-19T07:09:33.544Z,20.40
2022-12-19T07:12:01.711Z,21.23
2022-12-19T07:14:40.018Z,21.42
2022-12-19T07:17:12.904Z,22.20
2022-12-19T07:19:58.846Z,21.85
2022-12-19T07:23:57.453Z,20.52
2022-12-19T07:26:31.193Z,22.08
2022-12-19T07:31:46.710Z,20.58
2022-12-19T07:34:22.206Z,21.75
2022-12-19T07:37:01.165Z,20.65
2022-12-19T07:39:49.600Z,21.98
2022-12-19T07:42:32.818Z,20.15
2022-12-19T07:45:08.885Z,20.40
2022-12-19T07:47:41.162Z,20.15
2022-12-19T07:50:17.715Z,22.33
2022-12-19T07:52:44.690Z,22.63
2022-12-19T07:55:12.765Z,20.55
2022-12-19T07:57:41.138Z,22.65
2022-12-19T08:00:09.420Z,21.77
2022-12-19T08:02:36.653Z,20.60
2022-12-19T08:05:07.061Z,18.23
2022-12-19T08:07:34.354Z,20.35
2022-12-19T08:10:01.538Z,19.45
2022-12-19T08:12:28.327Z,18.75
2022-12-19T08:14:58.768Z,20.85
2022-12-19T08:17:26.583Z,20.50
2022-12-19T08:19:53.714Z,20.20
2022-12-19T08:22:20.648Z,20.30
2022-12-19T08:24:47.675Z,20.08
2022-12-19T08:27:16.999Z,20.20
2022-12-19T08:29:43.988Z,20.60
2022-12-19T08:32:18.775Z,19.58
2022-12-19T08:34:58.019Z,19.10
2022-12-19T08:37:33.849Z,20.63
2022-12-19T08:40:02.915Z,20.30
2022-12-19T08:42:35.450Z,19.80
2022-12-19T08:45:02.765Z,19.23
2022-12-19T08:47:29.741Z,20.85
2022-12-19T08:49:57.023Z,19.13
2022-12-19T08:52:23.968Z,19.98
2022-12-19T08:54:50.920Z,19.75
2022-12-19T08:57:17.707Z,20.95
2022-12-19T08:59:44.873Z,19.30
2022-12-19T09:02:18.715Z,23.33
2022-12-19T09:05:59.258Z,18.95
2022-12-19T09:07:32.538Z,20.45
2022-12-19T09:10:08.166Z,20.95
2022-12-19T09:12:35.520Z,20.88
2022-12-19T09:15:02.314Z,20.30
2022-12-19T09:17:29.210Z,20.45
2022-12-19T09:19:56.784Z,20.80
2022-12-19T09:22:29.848Z,21.00
2022-12-19T09:25:08.063Z,20.30
2022-12-19T09:27:53.708Z,19.50
2022-12-19T09:30:39.396Z,18.33
2022-12-19T09:33:07.474Z,18.08
2022-12-19T09:35:36.088Z,21.27
2022-12-19T09:38:03.776Z,20.80
2022-12-19T09:40:43.742Z,19.10
2022-12-19T09:43:33.994Z,18.58
2022-12-19T09:46:33.235Z,17.20
2022-12-19T09:49:10.528Z,20.30
2022-12-19T09:52:06.355Z,18.75
2022-12-19T09:54:41.793Z,18.40
2022-12-19T09:57:16.861Z,19.45
2022-12-19T10:00:02.642Z,20.42
2022-12-19T10:02:49.173Z,18.95
2022-12-19T10:05:49.612Z,18.77
2022-12-19T10:09:51.332Z,19.08
2022-12-19T10:12:40.546Z,20.58
2022-12-19T10:14:53.622Z,19.85
2022-12-19T10:17:28.395Z,20.00
2022-12-19T10:20:25.617Z,19.58
2022-12-19T10:22:58.282Z,19.92
2022-12-19T10:25:40.283Z,18.77
2022-12-19T10:28:19.728Z,21.35
2022-12-19T10:31:09.888Z,19.55
2022-12-19T10:34:15.141Z,19.88
2022-12-19T10:39:46.060Z,18.40
2022-12-19T10:42:28.490Z,21.00
2022-12-19T10:45:11.278Z,20.08
2022-12-19T10:47:38.712Z,18.23
2022-12-19T10:50:09.724Z,18.38
2022-12-19T10:53:11.909Z,19.40
2022-12-19T10:59:03.163Z,18.15
2022-12-19T11:01:41.773Z,17.02
2022-12-19T11:04:38.735Z,18.02
2022-12-19T11:07:27.947Z,17.73
2022-12-19T11:11:00.714Z,18.27
2022-12-19T11:17:11.732Z,17.50
2022-12-19T11:17:59.354Z,18.33
2022-12-19T11:29:37.272Z,17.88
2022-12-19T11:29:41.501Z,17.70
2022-12-19T11:30:35.541Z,18.63
2022-12-19T11:30:35.803Z,18.60
2022-12-19T11:33:28.340Z,18.77
2022-12-19T11:36:09.237Z,19.80
2022-12-19T11:38:54.495Z,18.67
2022-12-19T11:42:02.051Z,18.83
2022-12-19T11:45:07.703Z,18.73
2022-12-19T11:47:49.844Z,18.45
2022-12-19T11:50:28.283Z,17.83
2022-12-19T11:53:30.987Z,20.50
2022-12-19T11:56:22.094Z,19.90
2022-12-19T11:58:53.397Z,20.25
2022-12-19T12:01:41.950Z,19.48
2022-12-19T12:04:39.328Z,20.83
2022-12-19T12:07:16.923Z,20.05
2022-12-19T12:15:38.332Z,18.00
2022-12-19T12:23:05.699Z,18.15
2022-12-19T12:31:16.425Z,18.83
2022-12-19T12:31:18.382Z,20.58
2022-12-19T12:31:23.832Z,19.80
2022-12-19T12:31:49.895Z,19.67
2022-12-19T12:32:00.574Z,19.38
2022-12-19T12:35:56.478Z,18.42
2022-12-19T12:38:54.277Z,21.42
2022-12-19T12:41:54.456Z,20.90
2022-12-19T12:44:33.164Z,21.65
2022-12-19T12:47:17.043Z,21.75
2022-12-19T12:49:51.844Z,22.95
2022-12-19T12:52:23.888Z,21.85
2022-12-19T12:54:53.204Z,23.60
2022-12-19T12:57:28.953Z,22.38
2022-12-19T13:00:15.369Z,23.58
2022-12-19T13:02:45.935Z,23.42
2022-12-19T13:05:32.130Z,22.00
2022-12-19T13:07:59.007Z,24.63
2022-12-19T13:10:31.036Z,23.38
2022-12-19T13:13:01.779Z,25.02
2022-12-19T13:18:32.899Z,24.55
2022-12-19T13:21:01.607Z,23.52
2022-12-19T13:23:37.080Z,25.85
2022-12-19T13:26:04.724Z,25.98
2022-12-19T13:28:31.661Z,25.33
2022-12-19T13:31:18.600Z,26.75
2022-12-19T13:33:55.628Z,26.95
2022-12-19T13:39:57.595Z,25.48
2022-12-19T13:39:58.100Z,25.10
2022-12-19T13:43:09.571Z,27.88
2022-12-19T13:45:39.909Z,26.98
2022-12-19T13:48:16.419Z,19.48
2022-12-19T13:50:50.079Z,28.75
2022-12-19T13:53:19.168Z,26.23
2022-12-19T13:55:46.175Z,29.33
2022-12-19T13:58:29.285Z,28.83
2022-12-19T14:01:01.394Z,28.58
2022-12-19T14:03:39.039Z,29.48
2022-12-19T14:06:28.240Z,31.65
2022-12-19T14:11:23.189Z,30.48
2022-12-19T14:13:50.931Z,30.23
2022-12-19T14:15:40.880Z,32.00
2022-12-19T14:18:42.426Z,30.95
2022-12-19T14:22:10.608Z,31.75
2022-12-19T14:24:22.450Z,31.92
2022-12-19T14:28:25.853Z,30.40
2022-12-19T14:30:31.084Z,33.47
2022-12-19T14:33:43.933Z,33.42
2022-12-19T14:36:07.091Z,32.95
2022-12-19T14:39:24.039Z,35.05
2022-12-19T14:41:42.193Z,35.15
2022-12-19T14:52:34.525Z,33.63
2022-12-19T14:54:05.507Z,32.50
2022-12-19T14:54:16.484Z,33.92
2022-12-19T14:54:40.844Z,33.53
2022-12-19T14:56:09.697Z,35.88
2022-12-19T14:58:53.835Z,37.63
2022-12-19T15:01:28.499Z,36.83
2022-12-19T15:04:53.369Z,35.97
2022-12-19T15:07:11.818Z,36.72
2022-12-19T15:11:08.133Z,37.50
2022-12-19T15:14:55.304Z,35.22
2022-12-19T15:16:26.957Z,35.38
2022-12-19T15:19:00.530Z,35.17
2022-12-19T15:21:29.502Z,37.78
2022-12-19T15:23:56.158Z,38.33
2022-12-19T15:26:34.591Z,36.13
2022-12-19T15:29:02.961Z,38.03
2022-12-19T15:31:38.552Z,35.97
2022-12-19T15:34:48.211Z,37.88
2022-12-19T15:37:14.624Z,34.83
2022-12-19T15:39:41.682Z,36.70
2022-12-19T15:42:21.555Z,38.03
2022-12-19T15:44:49.034Z,38.03
2022-12-19T15:47:28.431Z,38.50
2022-12-19T15:49:55.140Z,35.97
2022-12-19T15:52:22.003Z,36.15
2022-12-19T15:54:50.565Z,36.22
2022-12-19T15:57:36.537Z,35.35
2022-12-19T16:00:12.910Z,37.85
2022-12-19T16:05:29.099Z,37.05
2022-12-19T16:07:58.853Z,37.83
2022-12-19T16:10:26.323Z,38.88
2022-12-19T16:12:55.649Z,37.25
2022-12-19T16:15:27.671Z,37.15
2022-12-19T16:17:55.537Z,38.60
2022-12-19T16:20:28.354Z,34.97
2022-12-19T16:22:57.903Z,37.85
2022-12-19T16:25:31.404Z,35.30
2022-12-19T16:27:59.452Z,38.53
2022-12-19T16:30:31.548Z,35.33
2022-12-19T16:32:58.494Z,39.25
2022-12-19T16:35:55.089Z,37.88
2022-12-19T16:38:14.461Z,37.65
2022-12-19T16:40:41.608Z,38.80
2022-12-19T16:43:15.736Z,37.92
2022-12-19T16:45:43.198Z,37.92
2022-12-19T16:48:21.984Z,38.50
2022-12-19T16:50:49.655Z,37.03
2022-12-19T16:53:17.213Z,37.88
2022-12-19T16:55:45.623Z,38.40
2022-12-19T16:58:18.916Z,37.72
2022-12-19T17:00:46.033Z,38.10
2022-12-19T17:03:41.159Z,39.35
2022-12-19T17:06:26.690Z,38.13
2022-12-19T17:08:53.312Z,38.35
2022-12-19T17:11:26.001Z,39.42
2022-12-19T17:14:08.532Z,38.15
2022-12-19T17:16:35.331Z,39.75
2022-12-19T17:19:02.753Z,38.17
2022-12-19T17:21:32.585Z,38.80
2022-12-19T17:23:59.126Z,39.05
2022-12-19T17:26:25.681Z,38.42
2022-12-19T17:28:53.141Z,40.53
2022-12-19T17:31:27.925Z,39.25
2022-12-19T17:33:57.670Z,38.15
2022-12-19T17:36:32.655Z,38.30
2022-12-19T17:39:01.622Z,41.35
2022-12-19T17:41:28.175Z,40.05
2022-12-19T17:43:54.668Z,36.17
2022-12-19T17:46:24.022Z,40.00
2022-12-19T17:48:52.810Z,40.67
2022-12-19T17:51:21.435Z,40.65
2022-12-19T17:53:49.774Z,40.05
2022-12-19T17:56:18.193Z,39.42
2022-12-19T17:58:44.731Z,38.35
2022-12-19T18:01:23.523Z,42.78
2022-12-19T18:03:52.266Z,39.03
2022-12-19T18:06:19.091Z,42.03
2022-12-19T18:08:45.580Z,41.88
2022-12-19T18:11:24.526Z,39.40
2022-12-19T18:13:51.732Z,41.88
2022-12-19T18:16:22.327Z,42.33
2022-12-19T18:18:49.062Z,33.77
2022-12-19T18:21:18.863Z,45.35
2022-12-19T18:23:45.644Z,42.03
2022-12-19T18:26:13.081Z,41.60
2022-12-19T18:28:40.398Z,41.78
2022-12-19T18:31:13.109Z,44.20
2022-12-19T18:33:41.986Z,43.13
2022-12-19T18:36:17.120Z,41.80
2022-12-19T18:38:43.609Z,44.97
2022-12-19T18:41:11.918Z,44.22
2022-12-19T18:43:38.345Z,45.20
2022-12-19T18:46:05.784Z,44.08
2022-12-19T18:48:36.866Z,41.63
2022-12-19T18:51:04.922Z,41.55
2022-12-19T18:53:35.207Z,42.17
2022-12-19T18:56:04.480Z,44.05
2022-12-19T18:58:31.304Z,41.47
2022-12-19T19:01:00.401Z,40.55
2022-12-19T19:03:33.678Z,42.38
2022-12-19T19:06:00.971Z,41.92
2022-12-19T19:08:30.775Z,42.47
2022-12-19T19:10:57.507Z,40.33
2022-12-19T19:13:25.704Z,42.65
2022-12-19T19:15:53.673Z,40.75
2022-12-19T19:18:30.001Z,41.97
2022-12-19T19:21:01.007Z,42.75
2022-12-19T19:28:26.526Z,38.20
2022-12-19T19:30:54.626Z,38.92
2022-12-19T19:33:25.782Z,40.85
2022-12-19T19:35:58.665Z,40.10
2022-12-19T19:38:25.193Z,40.45
2022-12-19T19:40:51.660Z,41.03
2022-12-19T19:43:18.176Z,37.90
2022-12-19T19:45:44.718Z,39.22
2022-12-19T19:48:11.166Z,39.75
2022-12-19T19:50:38.213Z,39.05
2022-12-19T19:53:05.163Z,37.67
2022-12-19T19:55:31.722Z,39.33
2022-12-19T19:57:58.345Z,38.45
2022-12-19T20:00:25.264Z,36.40
2022-12-19T20:02:53.016Z,38.38
2022-12-19T20:05:19.747Z,38.28
2022-12-19T20:07:46.363Z,38.08
2022-12-19T20:10:12.967Z,38.85
2022-12-19T20:12:39.547Z,36.17
2022-12-19T20:15:06.606Z,36.97
2022-12-19T20:17:33.120Z,36.47
2022-12-19T20:19:59.710Z,35.80
2022-12-19T20:22:26.332Z,37.70
2022-12-19T20:24:53.926Z,37.13
2022-12-19T20:27:20.566Z,36.00
2022-12-19T20:29:46.952Z,34.83
2022-12-19T20:32:15.004Z,35.70
2022-12-19T20:34:41.486Z,35.33
2022-12-19T20:37:08.027Z,33.40
2022-12-19T20:39:34.600Z,32.63
2022-12-19T20:42:01.130Z,33.35
2022-12-19T20:44:29.007Z,31.30
2022-12-19T20:46:55.574Z,30.70
2022-12-19T20:49:23.430Z,27.83
2022-12-19T20:51:50.048Z,30.63
2022-12-19T20:54:16.789Z,29.52
2022-12-19T20:56:43.231Z,28.25
2022-12-19T20:59:10.365Z,30.25
2022-12-19T21:01:37.606Z,28.52
2022-12-19T21:04:05.166Z,27.92
2022-12-19T21:06:31.901Z,27.65
2022-12-19T21:08:58.417Z,28.65
2022-12-19T21:11:26.538Z,27.60
2022-12-19T21:13:53.318Z,25.38
2022-12-19T21:16:22.106Z,27.95
2022-12-19T21:18:50.957Z,26.15
2022-12-19T21:21:20.898Z,25.83
2022-12-19T21:23:47.505Z,25.73
2022-12-19T21:26:14.126Z,24.10
2022-12-19T21:28:40.777Z,24.65
2022-12-19T21:31:20.023Z,24.33
2022-12-19T21:33:47.888Z,25.48
2022-12-19T21:36:20.341Z,23.17
2022-12-19T21:38:49.013Z,25.35
2022-12-19T21:41:19.340Z,25.83
2022-12-19T21:43:47.596Z,23.80
2022-12-19T21:46:16.036Z,24.27
2022-12-19T21:48:44.845Z,25.70
2022-12-19T21:51:12.626Z,24.65
2022-12-19T21:53:39.877Z,22.38
2022-12-19T21:56:15.326Z,23.60
2022-12-19T21:58:41.792Z,24.23
2022-12-19T22:01:11.186Z,23.63
2022-12-19T22:03:39.038Z,24.77
2022-12-19T22:06:08.775Z,23.90
2022-12-19T22:08:36.387Z,24.27
2022-12-19T22:11:03.044Z,25.25
2022-12-19T22:13:30.111Z,25.70
2022-12-19T22:16:01.734Z,24.65
2022-12-19T22:18:28.263Z,24.17
2022-12-19T22:21:01.075Z,24.42
2022-12-19T22:23:27.997Z,23.95
2022-12-19T22:26:07.024Z,25.73
2022-12-19T22:28:36.625Z,24.38
2022-12-19T22:31:04.287Z,24.75
2022-12-19T22:33:30.957Z,23.90
2022-12-19T22:35:57.426Z,25.08
2022-12-19T22:38:23.889Z,24.67
2022-12-19T22:40:50.458Z,23.23
2022-12-19T22:43:16.907Z,23.30
2022-12-19T22:45:43.389Z,22.48
2022-12-19T22:48:09.899Z,23.67
2022-12-19T22:50:36.749Z,26.40
2022-12-19T22:53:05.923Z,22.77
2022-12-19T22:55:34.725Z,22.95
2022-12-19T22:58:01.641Z,22.60
2022-12-19T23:00:28.143Z,24.25
2022-12-19T23:02:54.725Z,22.60
2022-12-19T23:05:21.356Z,24.23
2022-12-19T23:07:47.912Z,23.42
2022-12-19T23:10:14.383Z,22.50
2022-12-19T23:12:41.064Z,23.90
2022-12-19T23:15:07.958Z,22.42
2022-12-19T23:17:34.542Z,23.88
2022-12-19T23:20:01.055Z,23.15
2022-12-19T23:22:27.817Z,23.02
2022-12-19T23:24:54.338Z,22.55
2022-12-19T23:27:20.796Z,23.58
2022-12-19T23:29:49.301Z,22.63
2022-12-19T23:32:16.090Z,23.05
2022-12-19T23:34:42.778Z,23.52
2022-12-19T23:37:11.113Z,23.75
2022-12-19T23:39:38.242Z,21.00
2022-12-19T23:42:04.807Z,22.98
2022-12-19T23:44:31.405Z,22.30
2022-12-19T23:47:03.012Z,22.00
2022-12-19T23:49:30.246Z,22.33
2022-12-19T23:51:56.834Z,22.65
2022-12-19T23:54:23.320Z,21.50
2022-12-19T23:56:49.851Z,20.58
2022-12-19T23:59:16.333Z,21.55
